createdAt,value
2023-02-17T00:00:22.462Z,7.05
2023-02-17T00:02:52.570Z,5.93
2023-02-17T00:05:22.705Z,6.93
2023-02-17T00:07:57.660Z,8.18
2023-02-17T00:10:27.659Z,6.35
2023-02-17T00:12:57.710Z,5.18
2023-02-17T00:15:27.701Z,6.22
2023-02-17T00:17:58.171Z,5.13
2023-02-17T00:20:28.422Z,4.78
2023-02-17T00:23:01.218Z,6.38
2023-02-17T00:25:32.612Z,6.18
2023-02-17T00:28:02.883Z,5.53
2023-02-17T00:30:33.438Z,7.38
2023-02-17T00:33:04.366Z,6.43
2023-02-17T00:35:36.577Z,6.65
2023-02-17T00:38:09.393Z,8.10
2023-02-17T00:40:39.447Z,5.82
2023-02-17T00:43:09.582Z,5.10
2023-02-17T00:45:39.634Z,6.28
2023-02-17T00:48:10.882Z,4.97
2023-02-17T00:50:42.110Z,5.38
2023-02-17T00:53:14.768Z,6.32
2023-02-17T00:55:45.082Z,5.28
2023-02-17T00:58:15.314Z,5.05
2023-02-17T01:00:45.617Z,3.90
2023-02-17T01:03:15.794Z,5.03
2023-02-17T01:05:46.611Z,5.18
2023-02-17T01:08:21.116Z,5.57
2023-02-17T01:10:52.571Z,5.13
2023-02-17T01:13:23.137Z,4.28
2023-02-17T01:15:57.622Z,3.90
2023-02-17T01:18:28.116Z,6.20
2023-02-17T01:20:58.510Z,5.13
2023-02-17T01:23:31.071Z,5.50
2023-02-17T01:26:01.730Z,5.38
2023-02-17T01:28:32.977Z,5.50
2023-02-17T01:31:08.581Z,3.67
2023-02-17T01:33:39.391Z,4.65
2023-02-17T01:36:15.248Z,4.68
2023-02-17T01:38:49.333Z,4.47
2023-02-17T01:41:22.982Z,5.57
2023-02-17T01:44:12.258Z,5.57
2023-02-17T01:46:43.945Z,4.63
2023-02-17T01:49:34.175Z,5.53
2023-02-17T01:52:10.875Z,4.57
2023-02-17T01:54:48.543Z,3.80
2023-02-17T01:57:23.693Z,5.00
2023-02-17T01:59:55.074Z,4.95
2023-02-17T02:02:30.226Z,7.63
2023-02-17T02:05:00.671Z,6.30
2023-02-17T02:07:35.072Z,4.80
2023-02-17T02:10:09.496Z,3.85
2023-02-17T02:15:14.817Z,3.55
2023-02-17T02:17:56.185Z,6.40
2023-02-17T02:20:45.141Z,6.43
2023-02-17T02:23:51.502Z,6.35
2023-02-17T02:26:56.832Z,4.93
2023-02-17T02:32:46.105Z,4.68
2023-02-17T02:35:22.687Z,6.20
2023-02-17T02:37:57.334Z,5.93
2023-02-17T02:40:32.607Z,5.13
2023-02-17T02:43:05.172Z,5.25
2023-02-17T02:45:36.177Z,4.15
2023-02-17T02:48:10.602Z,6.03
2023-02-17T02:50:56.475Z,6.35
2023-02-17T02:53:51.958Z,5.97
2023-02-17T02:56:36.533Z,5.35
2023-02-17T02:59:19.858Z,6.32
2023-02-17T03:01:58.199Z,5.38
2023-02-17T03:04:36.313Z,4.50
2023-02-17T03:07:21.494Z,5.90
2023-02-17T03:09:52.612Z,3.88
2023-02-17T03:12:23.533Z,5.15
2023-02-17T03:14:58.760Z,8.02
2023-02-17T03:17:28.910Z,6.25
2023-02-17T03:20:05.476Z,5.93
2023-02-17T03:22:40.717Z,5.35
2023-02-17T03:25:12.072Z,5.03
2023-02-17T03:27:42.376Z,6.03
2023-02-17T03:30:13.941Z,6.70
2023-02-17T03:32:47.833Z,7.11
2023-02-17T03:35:20.795Z,6.50
2023-02-17T03:37:51.325Z,5.22
2023-02-17T03:40:21.612Z,7.03
2023-02-17T03:42:51.707Z,5.20
2023-02-17T03:45:21.643Z,7.00
2023-02-17T03:47:51.594Z,6.47
2023-02-17T03:50:26.888Z,7.10
2023-02-17T03:52:56.882Z,7.30
2023-02-17T03:55:27.278Z,5.65
2023-02-17T03:57:57.218Z,4.32
2023-02-17T04:00:27.532Z,6.10
2023-02-17T04:02:57.731Z,5.90
2023-02-17T04:05:30.651Z,4.10
2023-02-17T04:08:00.573Z,5.47
2023-02-17T04:10:30.692Z,5.30
2023-02-17T04:13:00.641Z,5.00
2023-02-17T04:15:30.574Z,4.32
2023-02-17T04:18:02.913Z,4.95
2023-02-17T04:20:35.752Z,3.78
2023-02-17T04:23:05.683Z,4.30
2023-02-17T04:25:36.923Z,4.72
2023-02-17T04:28:09.645Z,5.28
2023-02-17T04:30:39.739Z,4.00
2023-02-17T04:33:09.824Z,5.70
2023-02-17T04:35:42.633Z,4.65
2023-02-17T04:38:13.188Z,4.57
2023-02-17T04:40:46.036Z,3.90
2023-02-17T04:43:16.770Z,5.03
2023-02-17T04:45:46.831Z,4.90
2023-02-17T04:48:16.866Z,5.55
2023-02-17T04:50:49.567Z,5.15
2023-02-17T04:53:19.813Z,4.10
2023-02-17T04:55:52.698Z,5.63
2023-02-17T04:58:23.689Z,5.35
2023-02-17T05:00:54.445Z,5.45
2023-02-17T05:03:24.464Z,4.78
2023-02-17T05:05:58.323Z,5.88
2023-02-17T05:08:28.521Z,5.30
2023-02-17T05:10:58.541Z,3.47
2023-02-17T05:13:28.456Z,4.38
2023-02-17T05:15:58.492Z,4.00
2023-02-17T05:18:28.567Z,4.57
2023-02-17T05:21:01.268Z,4.28
2023-02-17T05:23:31.155Z,3.25
2023-02-17T05:26:01.084Z,4.40
2023-02-17T05:28:31.082Z,3.17
2023-02-17T05:31:01.191Z,4.75
2023-02-17T05:33:31.362Z,4.95
2023-02-17T05:36:08.519Z,5.70
2023-02-17T05:38:39.860Z,5.18
2023-02-17T05:41:09.899Z,4.20
2023-02-17T05:43:39.912Z,6.03
2023-02-17T05:46:10.396Z,6.38
2023-02-17T05:48:40.808Z,5.55
2023-02-17T05:51:13.807Z,7.30
2023-02-17T05:53:43.664Z,6.93
2023-02-17T05:56:13.922Z,5.90
2023-02-17T05:58:43.867Z,5.35
2023-02-17T06:01:14.819Z,5.80
2023-02-17T06:03:44.663Z,7.10
2023-02-17T06:06:17.425Z,5.80
2023-02-17T06:08:47.256Z,6.30
2023-02-17T06:11:17.342Z,6.95
2023-02-17T06:13:47.449Z,8.20
2023-02-17T06:16:18.086Z,5.50
2023-02-17T06:18:48.323Z,7.72
2023-02-17T06:21:20.750Z,7.28
2023-02-17T06:23:51.317Z,6.20
2023-02-17T06:26:21.355Z,7.22
2023-02-17T06:28:51.266Z,9.18
2023-02-17T06:31:21.190Z,6.88
2023-02-17T06:33:51.353Z,6.80
2023-02-17T06:36:24.748Z,5.68
2023-02-17T06:38:54.658Z,6.20
2023-02-17T06:41:24.571Z,7.25
2023-02-17T06:43:54.462Z,7.70
2023-02-17T06:46:24.528Z,8.05
2023-02-17T06:48:54.631Z,7.70
2023-02-17T06:51:27.634Z,10.00
2023-02-17T06:53:57.853Z,8.13
2023-02-17T06:56:28.082Z,8.52
2023-02-17T06:58:58.085Z,7.45
2023-02-17T07:01:29.481Z,6.85
2023-02-17T07:03:59.938Z,9.00
2023-02-17T07:06:33.865Z,8.15
2023-02-17T07:09:04.895Z,8.10
2023-02-17T07:11:34.765Z,6.70
2023-02-17T07:14:05.208Z,8.63
2023-02-17T07:16:36.589Z,6.38
2023-02-17T07:19:06.695Z,7.85
2023-02-17T07:21:39.595Z,7.70
2023-02-17T07:24:09.917Z,8.95
2023-02-17T07:26:40.243Z,9.10
2023-02-17T07:29:11.396Z,8.82
2023-02-17T07:31:41.941Z,7.95
2023-02-17T07:34:13.437Z,8.88
2023-02-17T07:36:46.306Z,8.18
2023-02-17T07:39:16.729Z,6.77
2023-02-17T07:41:47.008Z,6.82
2023-02-17T07:44:23.070Z,7.38
2023-02-17T07:46:53.125Z,7.90
2023-02-17T07:49:23.143Z,9.18
2023-02-17T07:51:56.090Z,9.35
2023-02-17T07:54:26.366Z,7.95
2023-02-17T07:56:56.657Z,8.82
2023-02-17T07:59:26.753Z,6.93
2023-02-17T08:01:56.762Z,8.32
2023-02-17T08:04:27.000Z,6.50
2023-02-17T08:06:59.534Z,7.88
2023-02-17T08:09:47.656Z,6.40
2023-02-17T08:12:32.270Z,7.38
2023-02-17T08:15:02.600Z,10.00
2023-02-17T08:17:33.160Z,9.00
2023-02-17T08:20:08.749Z,10.38
2023-02-17T08:22:41.878Z,9.43
2023-02-17T08:25:12.076Z,7.57
2023-02-17T08:27:42.393Z,6.57
2023-02-17T08:30:13.716Z,8.90
2023-02-17T08:32:43.876Z,6.47
2023-02-17T08:35:13.907Z,8.80
2023-02-17T08:37:46.813Z,7.68
2023-02-17T08:40:16.758Z,7.93
2023-02-17T08:42:46.930Z,6.93
2023-02-17T08:45:17.609Z,7.03
2023-02-17T08:47:51.026Z,8.38
2023-02-17T08:50:21.242Z,8.13
2023-02-17T08:52:53.924Z,6.72
2023-02-17T08:55:26.549Z,7.75
2023-02-17T08:57:56.820Z,7.95
2023-02-17T09:00:26.987Z,7.10
2023-02-17T09:02:57.008Z,6.80
2023-02-17T09:05:27.235Z,6.72
2023-02-17T09:08:07.221Z,7.95
2023-02-17T09:10:37.269Z,6.90
2023-02-17T09:13:07.431Z,7.70
2023-02-17T09:15:37.472Z,7.30
2023-02-17T09:18:07.631Z,6.38
2023-02-17T09:20:37.791Z,7.25
2023-02-17T09:23:10.646Z,6.28
2023-02-17T09:25:40.620Z,5.07
2023-02-17T09:28:11.119Z,6.32
2023-02-17T09:30:41.153Z,6.68
2023-02-17T09:33:13.146Z,5.18
2023-02-17T09:35:44.574Z,5.55
2023-02-17T09:38:17.179Z,5.28
2023-02-17T09:40:50.904Z,6.30
2023-02-17T09:43:25.334Z,3.97
2023-02-17T09:46:00.388Z,4.72
2023-02-17T09:48:34.080Z,5.10
2023-02-17T09:51:07.564Z,5.63
2023-02-17T09:53:45.803Z,4.83
2023-02-17T09:56:25.090Z,4.20
2023-02-17T09:58:58.362Z,6.28
2023-02-17T10:01:33.758Z,5.70
2023-02-17T10:04:08.132Z,5.53
2023-02-17T10:06:41.894Z,4.80
2023-02-17T10:09:22.182Z,5.32
2023-02-17T10:11:59.328Z,5.28
2023-02-17T10:14:33.870Z,6.70
2023-02-17T10:17:10.076Z,7.28
2023-02-17T10:19:48.024Z,5.65
2023-02-17T10:22:21.535Z,7.75
2023-02-17T10:24:55.164Z,5.93
2023-02-17T10:27:35.029Z,7.13
2023-02-17T10:30:22.136Z,5.35
2023-02-17T10:33:02.683Z,7.63
2023-02-17T10:35:48.298Z,7.80
2023-02-17T10:38:20.924Z,6.03
2023-02-17T10:40:55.821Z,7.65
2023-02-17T10:43:30.085Z,8.32
2023-02-17T10:46:02.806Z,8.68
2023-02-17T10:48:40.047Z,7.38
2023-02-17T10:51:10.495Z,7.22
2023-02-17T10:53:43.059Z,9.57
2023-02-17T10:56:20.301Z,8.23
2023-02-17T10:58:56.884Z,9.68
2023-02-17T11:01:26.997Z,8.43
2023-02-17T11:04:05.075Z,9.38
2023-02-17T11:06:40.514Z,7.70
2023-02-17T11:09:21.601Z,8.85
2023-02-17T11:12:01.937Z,10.40
2023-02-17T11:14:34.007Z,9.52
2023-02-17T11:17:06.684Z,10.85
2023-02-17T11:19:38.443Z,9.13
2023-02-17T11:22:25.555Z,11.32
2023-02-17T11:25:00.794Z,9.88
2023-02-17T11:27:33.628Z,9.48
2023-02-17T11:30:18.761Z,8.82
2023-02-17T11:32:49.437Z,8.88
2023-02-17T11:35:29.766Z,7.45
2023-02-17T11:38:05.078Z,9.57
2023-02-17T11:40:36.318Z,8.75
2023-02-17T11:43:09.318Z,9.43
2023-02-17T11:45:46.913Z,9.02
2023-02-17T11:48:37.511Z,8.43
2023-02-17T11:56:39.885Z,6.00
2023-02-17T11:59:38.822Z,7.15
2023-02-17T12:02:20.965Z,6.82
2023-02-17T12:05:14.091Z,6.70
2023-02-17T12:07:55.322Z,6.32
2023-02-17T12:10:35.764Z,7.07
2023-02-17T12:13:23.619Z,6.07
2023-02-17T12:16:09.716Z,7.45
2023-02-17T12:18:59.384Z,7.00
2023-02-17T12:21:46.746Z,7.68
2023-02-17T12:24:37.313Z,7.00
2023-02-17T12:27:18.754Z,7.30
2023-02-17T12:30:07.936Z,8.10
2023-02-17T12:32:53.258Z,6.07
2023-02-17T12:35:27.253Z,7.63
2023-02-17T12:40:40.928Z,4.60
2023-02-17T12:43:24.815Z,6.30
2023-02-17T12:45:57.680Z,5.63
2023-02-17T12:48:37.018Z,6.38
2023-02-17T12:51:11.667Z,4.70
2023-02-17T12:53:46.967Z,4.75
2023-02-17T12:56:51.066Z,4.22
2023-02-17T12:59:25.268Z,4.10
2023-02-17T13:04:32.713Z,3.80
2023-02-17T13:07:24.645Z,4.38
2023-02-17T13:09:59.440Z,3.72
2023-02-17T13:12:36.369Z,4.25
2023-02-17T13:15:08.689Z,4.22
2023-02-17T13:17:42.050Z,4.40
2023-02-17T13:20:53.441Z,4.00
2023-02-17T13:23:35.061Z,3.95
2023-02-17T13:26:27.171Z,4.00
2023-02-17T13:29:10.606Z,3.75
2023-02-17T13:31:50.613Z,3.78
2023-02-17T13:34:29.652Z,4.00
2023-02-17T13:37:17.488Z,4.15
2023-02-17T13:39:48.336Z,2.70
2023-02-17T13:42:48.941Z,3.65
2023-02-17T13:45:27.240Z,3.83
2023-02-17T13:47:59.533Z,3.20
2023-02-17T13:50:36.107Z,4.25
2023-02-17T13:53:25.441Z,3.30
2023-02-17T13:55:57.299Z,2.95
2023-02-17T13:58:32.571Z,2.95
2023-02-17T14:01:04.655Z,4.18
2023-02-17T14:03:38.245Z,5.10
2023-02-17T14:06:10.316Z,5.65
2023-02-17T14:08:44.609Z,6.00
2023-02-17T14:11:16.852Z,5.55
2023-02-17T14:13:49.141Z,5.00
2023-02-17T14:16:33.504Z,4.88
2023-02-17T14:19:14.586Z,3.88
2023-02-17T14:21:46.995Z,4.10
2023-02-17T14:24:30.846Z,5.03
2023-02-17T14:27:03.700Z,4.10
2023-02-17T14:29:44.430Z,4.55
2023-02-17T14:32:36.172Z,5.20
2023-02-17T14:35:23.028Z,4.28
2023-02-17T14:37:52.982Z,3.97
2023-02-17T14:40:27.618Z,3.83
2023-02-17T14:42:57.445Z,4.95
2023-02-17T14:45:27.367Z,4.13
2023-02-17T14:47:57.787Z,3.67
2023-02-17T14:50:27.901Z,4.00
2023-02-17T14:52:58.726Z,3.40
2023-02-17T14:55:39.216Z,2.67
2023-02-17T14:58:09.278Z,3.35
2023-02-17T15:00:39.514Z,3.03
2023-02-17T15:03:09.350Z,4.13
2023-02-17T15:05:39.613Z,3.63
2023-02-17T15:08:12.438Z,3.50
2023-02-17T15:10:45.720Z,2.75
2023-02-17T15:13:18.609Z,2.43
2023-02-17T15:15:49.799Z,3.22
2023-02-17T15:18:21.438Z,2.80
2023-02-17T15:20:54.091Z,3.70
2023-02-17T15:23:26.695Z,3.50
2023-02-17T15:26:00.398Z,3.65
2023-02-17T15:28:30.417Z,3.53
2023-02-17T15:31:00.435Z,3.42
2023-02-17T15:33:30.372Z,3.10
2023-02-17T15:36:01.513Z,2.50
2023-02-17T15:38:32.043Z,2.80
2023-02-17T15:41:05.822Z,3.08
2023-02-17T15:43:38.386Z,2.80
2023-02-17T15:46:15.625Z,3.42
2023-02-17T15:48:48.775Z,2.97
2023-02-17T15:51:24.748Z,1.80
2023-02-17T15:53:54.930Z,1.40
2023-02-17T15:56:30.179Z,2.20
2023-02-17T15:59:02.802Z,1.95
2023-02-17T16:01:35.202Z,1.60
2023-02-17T16:04:05.415Z,2.38
2023-02-17T16:06:35.573Z,1.75
2023-02-17T16:09:05.810Z,2.20
2023-02-17T16:11:43.658Z,1.92
2023-02-17T16:14:24.079Z,2.00
2023-02-17T16:17:11.428Z,2.58
2023-02-17T16:19:41.656Z,2.47
2023-02-17T16:22:12.224Z,2.28
2023-02-17T16:24:42.140Z,1.90
2023-02-17T16:27:17.755Z,2.90
2023-02-17T16:29:47.698Z,3.00
2023-02-17T16:32:17.903Z,2.80
2023-02-17T16:34:47.886Z,2.55
2023-02-17T16:37:20.244Z,2.97
2023-02-17T16:39:50.200Z,2.30
2023-02-17T16:42:22.985Z,2.58
2023-02-17T16:44:52.975Z,2.58
2023-02-17T16:47:24.631Z,3.05
2023-02-17T16:49:54.771Z,2.75
2023-02-17T16:52:27.932Z,2.17
2023-02-17T16:54:58.296Z,2.67
2023-02-17T16:57:31.049Z,2.78
2023-02-17T17:00:01.157Z,2.38
2023-02-17T17:02:31.404Z,2.92
2023-02-17T17:05:02.246Z,2.50
2023-02-17T17:07:34.067Z,2.50
2023-02-17T17:10:19.189Z,2.72
2023-02-17T17:12:52.309Z,3.85
2023-02-17T17:15:22.951Z,2.78
2023-02-17T17:17:58.465Z,2.78
2023-02-17T17:20:32.045Z,2.53
2023-02-17T17:23:03.248Z,2.05
2023-02-17T17:25:34.890Z,2.45
2023-02-17T17:28:09.385Z,3.75
2023-02-17T17:30:39.516Z,2.72
2023-02-17T17:33:09.671Z,2.55
2023-02-17T17:35:40.052Z,2.28
2023-02-17T17:38:10.741Z,2.75
2023-02-17T17:40:56.784Z,2.80
2023-02-17T17:43:29.797Z,2.97
2023-02-17T17:45:59.875Z,2.95
2023-02-17T17:48:30.287Z,2.58
2023-02-17T17:51:00.231Z,3.05
2023-02-17T17:53:30.276Z,2.90
2023-02-17T17:56:00.300Z,2.20
2023-02-17T17:58:34.623Z,1.80
2023-02-17T18:01:04.988Z,1.60
2023-02-17T18:03:35.028Z,1.35
2023-02-17T18:06:06.284Z,1.63
2023-02-17T18:08:37.631Z,1.38
2023-02-17T18:11:08.802Z,1.73
2023-02-17T18:13:41.668Z,1.40
2023-02-17T18:16:11.951Z,1.42
2023-02-17T18:18:42.765Z,1.50
2023-02-17T18:21:12.713Z,2.72
2023-02-17T18:23:42.892Z,1.42
2023-02-17T18:26:14.011Z,1.00
2023-02-17T18:28:46.708Z,1.45
2023-02-17T18:31:21.945Z,1.73
2023-02-17T18:33:51.948Z,1.42
2023-02-17T18:36:24.951Z,1.40
2023-02-17T18:38:55.177Z,1.92
2023-02-17T18:41:27.917Z,1.83
2023-02-17T18:44:03.189Z,0.85
2023-02-17T18:46:33.558Z,1.88
2023-02-17T18:49:03.907Z,2.20
2023-02-17T18:51:34.496Z,2.13
2023-02-17T18:54:05.400Z,1.80
2023-02-17T18:56:35.859Z,1.65
2023-02-17T18:59:09.573Z,1.10
2023-02-17T19:01:43.446Z,1.63
2023-02-17T19:04:15.128Z,1.02
2023-02-17T19:06:45.440Z,1.15
2023-02-17T19:09:15.470Z,1.13
2023-02-17T19:11:45.581Z,1.20
2023-02-17T19:14:18.132Z,1.15
2023-02-17T19:16:48.150Z,1.30
2023-02-17T19:19:21.367Z,1.03
2023-02-17T19:21:51.630Z,0.80
2023-02-17T19:24:21.646Z,1.08
2023-02-17T19:26:53.155Z,1.50
2023-02-17T19:29:25.848Z,1.20
2023-02-17T19:31:59.671Z,1.10
2023-02-17T19:34:34.237Z,1.23
2023-02-17T19:37:04.620Z,0.65
2023-02-17T19:39:38.953Z,1.20
2023-02-17T19:44:41.599Z,0.60
2023-02-17T19:47:11.935Z,1.10
2023-02-17T19:49:42.088Z,1.33
2023-02-17T19:52:12.254Z,0.57
2023-02-17T19:54:42.195Z,0.57
2023-02-17T19:57:12.235Z,0.95
2023-02-17T19:59:44.791Z,1.00
2023-02-17T20:02:18.102Z,0.98
2023-02-17T20:04:48.030Z,1.20
2023-02-17T20:07:17.985Z,1.17
2023-02-17T20:09:47.899Z,0.90
2023-02-17T20:12:18.131Z,0.77
2023-02-17T20:14:50.875Z,1.20
2023-02-17T20:17:20.789Z,1.13
2023-02-17T20:19:51.018Z,1.40
2023-02-17T20:22:21.466Z,0.88
2023-02-17T20:24:51.716Z,1.23
2023-02-17T20:27:21.919Z,0.82
2023-02-17T20:29:54.433Z,1.00
2023-02-17T20:32:25.865Z,0.75
2023-02-17T20:34:55.996Z,0.40
2023-02-17T20:37:26.005Z,1.40
2023-02-17T20:39:56.056Z,0.77
2023-02-17T20:42:26.343Z,0.47
2023-02-17T20:44:58.954Z,0.70
2023-02-17T20:47:28.997Z,0.68
2023-02-17T20:49:59.534Z,0.88
2023-02-17T20:52:29.565Z,1.08
2023-02-17T20:54:59.645Z,1.50
2023-02-17T20:57:30.148Z,1.33
2023-02-17T21:00:04.414Z,0.70
2023-02-17T21:05:04.390Z,0.80
2023-02-17T21:07:34.249Z,0.85
2023-02-17T21:10:04.571Z,0.50
2023-02-17T21:12:34.700Z,0.73
2023-02-17T21:15:07.788Z,0.70
2023-02-17T21:17:37.985Z,0.70
2023-02-17T21:20:09.286Z,1.48
2023-02-17T21:22:39.652Z,0.70
2023-02-17T21:25:10.582Z,0.80
2023-02-17T21:27:40.724Z,0.90
2023-02-17T21:30:15.062Z,1.02
2023-02-17T21:35:14.977Z,0.95
2023-02-17T21:37:45.202Z,0.68
2023-02-17T21:40:17.349Z,0.70
2023-02-17T21:42:59.556Z,0.80
2023-02-17T21:45:39.462Z,0.67
2023-02-17T21:48:10.357Z,0.88
2023-02-17T21:50:40.476Z,0.80
2023-02-17T21:53:10.448Z,0.57
2023-02-17T21:55:40.494Z,1.10
2023-02-17T21:58:10.517Z,0.88
2023-02-17T22:00:43.193Z,1.30
2023-02-17T22:03:13.050Z,1.30
2023-02-17T22:05:44.399Z,0.98
2023-02-17T22:08:15.042Z,0.93
2023-02-17T22:10:45.780Z,1.10
2023-02-17T22:13:15.674Z,0.85
2023-02-17T22:15:48.584Z,0.70
2023-02-17T22:18:18.412Z,1.23
2023-02-17T22:20:48.567Z,0.95
2023-02-17T22:23:18.490Z,0.60
2023-02-17T22:25:48.408Z,0.80
2023-02-17T22:28:18.293Z,0.80
2023-02-17T22:30:56.085Z,1.00
2023-02-17T22:33:26.057Z,1.05
2023-02-17T22:36:00.388Z,0.70
2023-02-17T22:38:30.819Z,0.95
2023-02-17T22:41:00.879Z,1.10
2023-02-17T22:43:30.754Z,0.52
2023-02-17T22:46:04.366Z,1.15
2023-02-17T22:48:35.913Z,0.95
2023-02-17T22:51:08.217Z,0.85
2023-02-17T22:53:38.751Z,0.50
2023-02-17T22:56:09.760Z,0.60
2023-02-17T22:58:42.454Z,1.10
2023-02-17T23:01:17.710Z,0.65
2023-02-17T23:03:52.394Z,0.90
2023-02-17T23:06:26.570Z,0.80
2023-02-17T23:08:57.482Z,0.73
2023-02-17T23:11:42.462Z,0.80
2023-02-17T23:14:13.283Z,1.08
2023-02-17T23:16:47.799Z,0.73
2023-02-17T23:19:19.584Z,0.60
2023-02-17T23:21:51.556Z,0.52
2023-02-17T23:24:22.668Z,1.30
2023-02-17T23:26:53.744Z,0.80
2023-02-17T23:29:24.785Z,0.80
2023-02-17T23:31:57.623Z,0.75
2023-02-17T23:34:28.424Z,0.65
2023-02-17T23:36:58.304Z,1.08
2023-02-17T23:39:28.841Z,0.80
2023-02-17T23:41:58.846Z,1.00
2023-02-17T23:44:28.879Z,0.88
2023-02-17T23:47:01.684Z,1.38
2023-02-17T23:49:31.596Z,0.90
2023-02-17T23:52:01.678Z,0.63
2023-02-17T23:54:31.587Z,0.75
2023-02-17T23:57:01.401Z,1.00
2023-02-17T23:59:31.312Z,0.70
